sensor_id;sensor_type;location;lat;lon;timestamp;P1;durP1;ratioP1;P2;durP2;ratioP2
22248;SDS011;67538;52.180;5.646;2023-04-03T00:00:30;4.10;;;3.03;;
22248;SDS011;67538;52.180;5.646;2023-04-03T00:02:57;6.18;;;3.22;;
22248;SDS011;67538;52.180;5.646;2023-04-03T00:05:25;5.00;;;2.90;;
22248;SDS011;67538;52.180;5.646;2023-04-03T00:07:52;4.55;;;3.00;;
22248;SDS011;67538;52.180;5.646;2023-04-03T00:10:19;5.80;;;3.53;;
22248;SDS011;67538;52.180;5.646;2023-04-03T00:12:47;4.55;;;2.90;;
22248;SDS011;67538;52.180;5.646;2023-04-03T00:15:14;4.65;;;3.30;;
22248;SDS011;67538;52.180;5.646;2023-04-03T00:17:41;4.93;;;3.30;;
22248;SDS011;67538;52.180;5.646;2023-04-03T00:20:09;4.20;;;2.80;;
22248;SDS011;67538;52.180;5.646;2023-04-03T00:22:36;6.15;;;3.35;;
22248;SDS011;67538;52.180;5.646;2023-04-03T00:25:03;4.75;;;3.25;;
22248;SDS011;67538;52.180;5.646;2023-04-03T00:27:31;5.30;;;2.90;;
22248;SDS011;67538;52.180;5.646;2023-04-03T00:29:59;6.53;;;3.37;;
22248;SDS011;67538;52.180;5.646;2023-04-03T00:32:26;5.28;;;3.15;;
22248;SDS011;67538;52.180;5.646;2023-04-03T00:34:54;6.60;;;2.95;;
22248;SDS011;67538;52.180;5.646;2023-04-03T00:37:21;5.25;;;3.13;;
22248;SDS011;67538;52.180;5.646;2023-04-03T00:39:48;7.13;;;3.35;;
22248;SDS011;67538;52.180;5.646;2023-04-03T00:42:15;5.25;;;3.03;;
22248;SDS011;67538;52.180;5.646;2023-04-03T00:47:52;5.82;;;3.38;;
22248;SDS011;67538;52.180;5.646;2023-04-03T00:50:20;5.75;;;3.50;;
22248;SDS011;67538;52.180;5.646;2023-04-03T00:52:48;5.35;;;3.13;;
22248;SDS011;67538;52.180;5.646;2023-04-03T00:55:15;5.30;;;3.40;;
22248;SDS011;67538;52.180;5.646;2023-04-03T00:57:42;7.05;;;3.03;;
22248;SDS011;67538;52.180;5.646;2023-04-03T01:00:13;5.20;;;3.10;;
22248;SDS011;67538;52.180;5.646;2023-04-03T01:02:43;5.00;;;3.20;;
22248;SDS011;67538;52.180;5.646;2023-04-03T01:05:11;5.82;;;3.17;;
22248;SDS011;67538;52.180;5.646;2023-04-03T01:07:41;6.53;;;3.20;;
22248;SDS011;67538;52.180;5.646;2023-04-03T01:10:09;5.50;;;3.22;;
22248;SDS011;67538;52.180;5.646;2023-04-03T01:12:39;5.43;;;3.20;;
22248;SDS011;67538;52.180;5.646;2023-04-03T01:15:08;5.97;;;3.30;;
22248;SDS011;67538;52.180;5.646;2023-04-03T01:17:38;6.93;;;3.70;;
22248;SDS011;67538;52.180;5.646;2023-04-03T01:20:18;5.72;;;3.28;;
22248;SDS011;67538;52.180;5.646;2023-04-03T01:23:12;7.07;;;3.45;;
22248;SDS011;67538;52.180;5.646;2023-04-03T01:25:57;5.53;;;3.45;;
22248;SDS011;67538;52.180;5.646;2023-04-03T01:28:25;4.70;;;3.33;;
22248;SDS011;67538;52.180;5.646;2023-04-03T01:30:55;6.43;;;3.43;;
22248;SDS011;67538;52.180;5.646;2023-04-03T01:33:30;7.65;;;3.72;;
22248;SDS011;67538;52.180;5.646;2023-04-03T01:35:57;5.35;;;3.30;;
22248;SDS011;67538;52.180;5.646;2023-04-03T01:38:24;5.95;;;3.50;;
22248;SDS011;67538;52.180;5.646;2023-04-03T01:40:51;5.55;;;3.50;;
22248;SDS011;67538;52.180;5.646;2023-04-03T01:43:18;5.90;;;3.17;;
22248;SDS011;67538;52.180;5.646;2023-04-03T01:45:45;7.00;;;3.42;;
22248;SDS011;67538;52.180;5.646;2023-04-03T01:48:14;6.22;;;3.30;;
22248;SDS011;67538;52.180;5.646;2023-04-03T01:50:43;7.50;;;3.47;;
22248;SDS011;67538;52.180;5.646;2023-04-03T01:53:10;6.30;;;3.28;;
22248;SDS011;67538;52.180;5.646;2023-04-03T01:55:38;7.45;;;3.95;;
22248;SDS011;67538;52.180;5.646;2023-04-03T01:58:05;7.93;;;3.17;;
22248;SDS011;67538;52.180;5.646;2023-04-03T02:00:32;6.70;;;3.50;;
22248;SDS011;67538;52.180;5.646;2023-04-03T02:02:59;5.82;;;3.65;;
22248;SDS011;67538;52.180;5.646;2023-04-03T02:05:26;8.27;;;3.70;;
22248;SDS011;67538;52.180;5.646;2023-04-03T02:07:55;8.37;;;3.90;;
22248;SDS011;67538;52.180;5.646;2023-04-03T02:10:22;7.22;;;3.70;;
22248;SDS011;67538;52.180;5.646;2023-04-03T02:12:49;8.43;;;4.27;;
22248;SDS011;67538;52.180;5.646;2023-04-03T02:15:16;9.10;;;4.78;;
22248;SDS011;67538;52.180;5.646;2023-04-03T02:17:43;8.55;;;4.38;;
22248;SDS011;67538;52.180;5.646;2023-04-03T02:20:10;7.18;;;4.45;;
22248;SDS011;67538;52.180;5.646;2023-04-03T02:22:38;7.00;;;4.30;;
22248;SDS011;67538;52.180;5.646;2023-04-03T02:25:06;8.85;;;4.18;;
22248;SDS011;67538;52.180;5.646;2023-04-03T02:27:34;7.20;;;4.00;;
22248;SDS011;67538;52.180;5.646;2023-04-03T02:30:01;7.30;;;4.57;;
22248;SDS011;67538;52.180;5.646;2023-04-03T02:32:29;6.88;;;4.07;;
22248;SDS011;67538;52.180;5.646;2023-04-03T02:34:56;9.38;;;4.10;;
22248;SDS011;67538;52.180;5.646;2023-04-03T02:37:23;8.48;;;3.67;;
22248;SDS011;67538;52.180;5.646;2023-04-03T02:39:50;7.32;;;3.65;;
22248;SDS011;67538;52.180;5.646;2023-04-03T02:42:19;9.18;;;4.57;;
22248;SDS011;67538;52.180;5.646;2023-04-03T02:44:46;7.85;;;4.20;;
22248;SDS011;67538;52.180;5.646;2023-04-03T02:47:13;7.40;;;3.80;;
22248;SDS011;67538;52.180;5.646;2023-04-03T02:49:40;9.27;;;4.20;;
22248;SDS011;67538;52.180;5.646;2023-04-03T02:52:08;5.95;;;3.58;;
22248;SDS011;67538;52.180;5.646;2023-04-03T02:54:35;9.30;;;3.80;;
22248;SDS011;67538;52.180;5.646;2023-04-03T02:57:03;8.73;;;4.10;;
22248;SDS011;67538;52.180;5.646;2023-04-03T02:59:31;9.90;;;4.43;;
22248;SDS011;67538;52.180;5.646;2023-04-03T03:01:58;7.23;;;4.40;;
22248;SDS011;67538;52.180;5.646;2023-04-03T03:04:25;7.57;;;4.70;;
22248;SDS011;67538;52.180;5.646;2023-04-03T03:06:53;9.18;;;4.40;;
22248;SDS011;67538;52.180;5.646;2023-04-03T03:09:20;7.60;;;4.30;;
22248;SDS011;67538;52.180;5.646;2023-04-03T03:11:47;6.63;;;3.60;;
22248;SDS011;67538;52.180;5.646;2023-04-03T03:14:14;10.00;;;4.30;;
22248;SDS011;67538;52.180;5.646;2023-04-03T03:16:42;9.27;;;4.67;;
22248;SDS011;67538;52.180;5.646;2023-04-03T03:19:09;8.80;;;4.10;;
22248;SDS011;67538;52.180;5.646;2023-04-03T03:21:36;8.70;;;4.15;;
22248;SDS011;67538;52.180;5.646;2023-04-03T03:24:04;8.98;;;5.10;;
22248;SDS011;67538;52.180;5.646;2023-04-03T03:26:31;7.90;;;4.25;;
22248;SDS011;67538;52.180;5.646;2023-04-03T03:28:58;7.38;;;4.50;;
22248;SDS011;67538;52.180;5.646;2023-04-03T03:31:25;8.60;;;4.67;;
22248;SDS011;67538;52.180;5.646;2023-04-03T03:33:54;9.27;;;5.05;;
22248;SDS011;67538;52.180;5.646;2023-04-03T03:36:21;8.18;;;4.38;;
22248;SDS011;67538;52.180;5.646;2023-04-03T03:38:48;10.15;;;4.82;;
22248;SDS011;67538;52.180;5.646;2023-04-03T03:41:15;10.60;;;4.28;;
22248;SDS011;67538;52.180;5.646;2023-04-03T03:43:42;9.47;;;4.47;;
22248;SDS011;67538;52.180;5.646;2023-04-03T03:46:09;9.43;;;4.32;;
22248;SDS011;67538;52.180;5.646;2023-04-03T03:48:36;7.93;;;4.00;;
22248;SDS011;67538;52.180;5.646;2023-04-03T03:51:05;9.17;;;4.70;;
22248;SDS011;67538;52.180;5.646;2023-04-03T03:53:32;9.97;;;4.27;;
22248;SDS011;67538;52.180;5.646;2023-04-03T03:55:59;9.80;;;4.90;;
22248;SDS011;67538;52.180;5.646;2023-04-03T03:58:26;11.95;;;4.45;;
22248;SDS011;67538;52.180;5.646;2023-04-03T04:00:53;12.38;;;4.97;;
22248;SDS011;67538;52.180;5.646;2023-04-03T04:03:20;10.68;;;4.50;;
22248;SDS011;67538;52.180;5.646;2023-04-03T04:05:47;9.70;;;4.60;;
22248;SDS011;67538;52.180;5.646;2023-04-03T04:08:16;11.02;;;4.07;;
22248;SDS011;67538;52.180;5.646;2023-04-03T04:10:43;10.57;;;4.55;;
22248;SDS011;67538;52.180;5.646;2023-04-03T04:13:10;10.20;;;4.65;;
22248;SDS011;67538;52.180;5.646;2023-04-03T04:15:37;10.13;;;4.13;;
22248;SDS011;67538;52.180;5.646;2023-04-03T04:18:04;10.77;;;4.03;;
22248;SDS011;67538;52.180;5.646;2023-04-03T04:20:31;10.38;;;4.15;;
22248;SDS011;67538;52.180;5.646;2023-04-03T04:22:58;9.75;;;4.25;;
22248;SDS011;67538;52.180;5.646;2023-04-03T04:25:26;8.30;;;4.50;;
22248;SDS011;67538;52.180;5.646;2023-04-03T04:27:53;8.38;;;4.15;;
22248;SDS011;67538;52.180;5.646;2023-04-03T04:30:20;9.27;;;4.80;;
22248;SDS011;67538;52.180;5.646;2023-04-03T04:32:47;9.50;;;4.45;;
22248;SDS011;67538;52.180;5.646;2023-04-03T04:35:15;11.55;;;4.53;;
22248;SDS011;67538;52.180;5.646;2023-04-03T04:37:42;9.80;;;4.70;;
22248;SDS011;67538;52.180;5.646;2023-04-03T04:40:10;10.00;;;4.45;;
22248;SDS011;67538;52.180;5.646;2023-04-03T04:42:38;11.02;;;4.55;;
22248;SDS011;67538;52.180;5.646;2023-04-03T04:45:06;11.15;;;4.63;;
22248;SDS011;67538;52.180;5.646;2023-04-03T04:47:33;11.07;;;4.38;;
22248;SDS011;67538;52.180;5.646;2023-04-03T04:50:00;12.70;;;5.22;;
22248;SDS011;67538;52.180;5.646;2023-04-03T04:52:27;9.07;;;4.75;;
22248;SDS011;67538;52.180;5.646;2023-04-03T04:54:54;9.53;;;4.80;;
22248;SDS011;67538;52.180;5.646;2023-04-03T04:57:21;11.55;;;5.00;;
22248;SDS011;67538;52.180;5.646;2023-04-03T04:59:50;9.05;;;4.82;;
22248;SDS011;67538;52.180;5.646;2023-04-03T05:02:17;9.00;;;5.10;;
22248;SDS011;67538;52.180;5.646;2023-04-03T05:04:44;8.60;;;4.40;;
22248;SDS011;67538;52.180;5.646;2023-04-03T05:07:11;11.65;;;4.70;;
22248;SDS011;67538;52.180;5.646;2023-04-03T05:09:38;12.93;;;5.15;;
22248;SDS011;67538;52.180;5.646;2023-04-03T05:12:07;12.40;;;5.22;;
22248;SDS011;67538;52.180;5.646;2023-04-03T05:14:34;11.18;;;4.85;;
22248;SDS011;67538;52.180;5.646;2023-04-03T05:17:02;10.67;;;5.20;;
22248;SDS011;67538;52.180;5.646;2023-04-03T05:19:30;10.15;;;4.85;;
22248;SDS011;67538;52.180;5.646;2023-04-03T05:21:57;13.15;;;5.20;;
22248;SDS011;67538;52.180;5.646;2023-04-03T05:24:24;11.93;;;5.03;;
22248;SDS011;67538;52.180;5.646;2023-04-03T05:26:51;12.50;;;5.50;;
22248;SDS011;67538;52.180;5.646;2023-04-03T05:29:18;13.13;;;5.57;;
22248;SDS011;67538;52.180;5.646;2023-04-03T05:31:45;12.45;;;5.50;;
22248;SDS011;67538;52.180;5.646;2023-04-03T05:34:13;15.85;;;5.95;;
22248;SDS011;67538;52.180;5.646;2023-04-03T05:36:40;12.68;;;5.18;;
22248;SDS011;67538;52.180;5.646;2023-04-03T05:39:08;13.50;;;5.22;;
22248;SDS011;67538;52.180;5.646;2023-04-03T05:41:35;14.13;;;5.13;;
22248;SDS011;67538;52.180;5.646;2023-04-03T05:44:02;12.90;;;5.00;;
22248;SDS011;67538;52.180;5.646;2023-04-03T05:46:29;10.73;;;5.25;;
22248;SDS011;67538;52.180;5.646;2023-04-03T05:48:56;10.25;;;4.53;;
22248;SDS011;67538;52.180;5.646;2023-04-03T05:51:25;11.30;;;4.80;;
22248;SDS011;67538;52.180;5.646;2023-04-03T05:53:58;15.05;;;8.38;;
22248;SDS011;67538;52.180;5.646;2023-04-03T05:56:31;17.02;;;8.02;;
22248;SDS011;67538;52.180;5.646;2023-04-03T05:58:58;22.52;;;13.13;;
22248;SDS011;67538;52.180;5.646;2023-04-03T06:01:25;36.65;;;19.05;;
22248;SDS011;67538;52.180;5.646;2023-04-03T06:03:52;29.93;;;15.97;;
22248;SDS011;67538;52.180;5.646;2023-04-03T06:06:19;15.50;;;9.20;;
22248;SDS011;67538;52.180;5.646;2023-04-03T06:08:48;11.45;;;5.00;;
22248;SDS011;67538;52.180;5.646;2023-04-03T06:11:16;13.15;;;5.00;;
22248;SDS011;67538;52.180;5.646;2023-04-03T06:13:43;11.97;;;4.37;;
22248;SDS011;67538;52.180;5.646;2023-04-03T06:16:11;8.68;;;4.20;;
22248;SDS011;67538;52.180;5.646;2023-04-03T06:18:40;9.48;;;4.93;;
22248;SDS011;67538;52.180;5.646;2023-04-03T06:21:07;11.57;;;4.97;;
22248;SDS011;67538;52.180;5.646;2023-04-03T06:23:34;9.82;;;4.70;;
22248;SDS011;67538;52.180;5.646;2023-04-03T06:26:03;10.75;;;4.53;;
22248;SDS011;67538;52.180;5.646;2023-04-03T06:28:30;10.05;;;4.38;;
22248;SDS011;67538;52.180;5.646;2023-04-03T06:30:57;10.27;;;6.00;;
22248;SDS011;67538;52.180;5.646;2023-04-03T06:33:24;10.50;;;4.55;;
22248;SDS011;67538;52.180;5.646;2023-04-03T06:35:55;8.82;;;4.60;;
22248;SDS011;67538;52.180;5.646;2023-04-03T06:38:23;11.63;;;4.70;;
22248;SDS011;67538;52.180;5.646;2023-04-03T06:40:50;13.65;;;6.53;;
22248;SDS011;67538;52.180;5.646;2023-04-03T06:43:20;9.75;;;4.15;;
22248;SDS011;67538;52.180;5.646;2023-04-03T06:45:47;11.18;;;5.55;;
22248;SDS011;67538;52.180;5.646;2023-04-03T06:48:14;10.73;;;4.80;;
22248;SDS011;67538;52.180;5.646;2023-04-03T06:50:41;11.45;;;4.90;;
22248;SDS011;67538;52.180;5.646;2023-04-03T06:53:09;10.50;;;4.85;;
22248;SDS011;67538;52.180;5.646;2023-04-03T06:55:37;12.05;;;3.80;;
22248;SDS011;67538;52.180;5.646;2023-04-03T06:58:04;8.93;;;4.10;;
22248;SDS011;67538;52.180;5.646;2023-04-03T07:00:32;8.10;;;4.30;;
22248;SDS011;67538;52.180;5.646;2023-04-03T07:02:59;6.97;;;3.70;;
22248;SDS011;67538;52.180;5.646;2023-04-03T07:05:26;8.40;;;3.80;;
22248;SDS011;67538;52.180;5.646;2023-04-03T07:07:53;9.45;;;3.60;;
22248;SDS011;67538;52.180;5.646;2023-04-03T07:10:20;10.13;;;3.80;;
22248;SDS011;67538;52.180;5.646;2023-04-03T07:12:48;9.00;;;3.80;;
22248;SDS011;67538;52.180;5.646;2023-04-03T07:15:15;10.43;;;4.28;;
22248;SDS011;67538;52.180;5.646;2023-04-03T07:17:43;15.32;;;6.55;;
22248;SDS011;67538;52.180;5.646;2023-04-03T07:20:11;18.80;;;9.20;;
22248;SDS011;67538;52.180;5.646;2023-04-03T07:22:38;12.90;;;4.80;;
22248;SDS011;67538;52.180;5.646;2023-04-03T07:25:05;10.73;;;4.50;;
22248;SDS011;67538;52.180;5.646;2023-04-03T07:27:33;11.10;;;5.57;;
22248;SDS011;67538;52.180;5.646;2023-04-03T07:30:00;12.27;;;5.85;;
22248;SDS011;67538;52.180;5.646;2023-04-03T07:32:28;13.98;;;6.80;;
22248;SDS011;67538;52.180;5.646;2023-04-03T07:34:57;12.80;;;6.57;;
22248;SDS011;67538;52.180;5.646;2023-04-03T07:37:24;9.55;;;4.63;;
22248;SDS011;67538;52.180;5.646;2023-04-03T07:39:51;10.73;;;4.97;;
22248;SDS011;67538;52.180;5.646;2023-04-03T07:42:20;9.95;;;3.70;;
22248;SDS011;67538;52.180;5.646;2023-04-03T07:44:47;11.10;;;5.37;;
22248;SDS011;67538;52.180;5.646;2023-04-03T07:47:14;11.07;;;5.28;;
22248;SDS011;67538;52.180;5.646;2023-04-03T07:49:42;8.02;;;4.40;;
22248;SDS011;67538;52.180;5.646;2023-04-03T07:52:10;8.90;;;4.20;;
22248;SDS011;67538;52.180;5.646;2023-04-03T07:54:38;10.73;;;5.53;;
22248;SDS011;67538;52.180;5.646;2023-04-03T07:57:05;7.38;;;3.35;;
22248;SDS011;67538;52.180;5.646;2023-04-03T07:59:32;15.10;;;4.43;;
22248;SDS011;67538;52.180;5.646;2023-04-03T08:02:00;5.72;;;3.22;;
22248;SDS011;67538;52.180;5.646;2023-04-03T08:04:29;7.18;;;3.45;;
22248;SDS011;67538;52.180;5.646;2023-04-03T08:06:56;6.32;;;3.40;;
22248;SDS011;67538;52.180;5.646;2023-04-03T08:09:25;7.30;;;3.70;;
22248;SDS011;67538;52.180;5.646;2023-04-03T08:11:52;7.97;;;4.10;;
22248;SDS011;67538;52.180;5.646;2023-04-03T08:14:19;7.35;;;3.47;;
22248;SDS011;67538;52.180;5.646;2023-04-03T08:16:47;8.77;;;3.15;;
22248;SDS011;67538;52.180;5.646;2023-04-03T08:19:14;9.27;;;4.18;;
22248;SDS011;67538;52.180;5.646;2023-04-03T08:21:43;13.35;;;7.03;;
22248;SDS011;67538;52.180;5.646;2023-04-03T08:24:10;8.05;;;3.78;;
22248;SDS011;67538;52.180;5.646;2023-04-03T08:26:39;7.23;;;2.63;;
22248;SDS011;67538;52.180;5.646;2023-04-03T08:29:06;4.47;;;2.63;;
22248;SDS011;67538;52.180;5.646;2023-04-03T08:31:33;5.40;;;2.90;;
22248;SDS011;67538;52.180;5.646;2023-04-03T08:34:00;6.07;;;2.80;;
22248;SDS011;67538;52.180;5.646;2023-04-03T08:36:28;6.53;;;2.85;;
22248;SDS011;67538;52.180;5.646;2023-04-03T08:38:56;5.25;;;2.60;;
22248;SDS011;67538;52.180;5.646;2023-04-03T08:41:26;5.15;;;2.60;;
22248;SDS011;67538;52.180;5.646;2023-04-03T08:44:00;3.92;;;2.42;;
22248;SDS011;67538;52.180;5.646;2023-04-03T08:46:37;4.53;;;2.70;;
22248;SDS011;67538;52.180;5.646;2023-04-03T08:49:16;3.88;;;2.47;;
22248;SDS011;67538;52.180;5.646;2023-04-03T08:51:49;3.93;;;2.80;;
22248;SDS011;67538;52.180;5.646;2023-04-03T08:54:21;4.25;;;2.08;;
22248;SDS011;67538;52.180;5.646;2023-04-03T08:56:54;4.13;;;2.35;;
22248;SDS011;67538;52.180;5.646;2023-04-03T08:59:26;9.30;;;4.28;;
22248;SDS011;67538;52.180;5.646;2023-04-03T09:01:56;4.43;;;2.90;;
22248;SDS011;67538;52.180;5.646;2023-04-03T09:04:27;5.03;;;3.30;;
22248;SDS011;67538;52.180;5.646;2023-04-03T09:06:58;5.30;;;2.50;;
22248;SDS011;67538;52.180;5.646;2023-04-03T09:09:33;3.58;;;2.20;;
22248;SDS011;67538;52.180;5.646;2023-04-03T09:12:06;3.08;;;2.03;;
22248;SDS011;67538;52.180;5.646;2023-04-03T09:14:45;3.03;;;1.90;;
22248;SDS011;67538;52.180;5.646;2023-04-03T09:17:21;5.43;;;2.00;;
22248;SDS011;67538;52.180;5.646;2023-04-03T09:20:02;2.20;;;1.85;;
22248;SDS011;67538;52.180;5.646;2023-04-03T09:22:41;3.43;;;2.00;;
22248;SDS011;67538;52.180;5.646;2023-04-03T09:25:11;3.72;;;2.10;;
22248;SDS011;67538;52.180;5.646;2023-04-03T09:27:41;3.25;;;2.00;;
22248;SDS011;67538;52.180;5.646;2023-04-03T09:30:13;3.28;;;1.65;;
22248;SDS011;67538;52.180;5.646;2023-04-03T09:32:41;3.63;;;2.10;;
22248;SDS011;67538;52.180;5.646;2023-04-03T09:35:16;3.00;;;1.90;;
22248;SDS011;67538;52.180;5.646;2023-04-03T09:37:47;2.50;;;1.77;;
22248;SDS011;67538;52.180;5.646;2023-04-03T09:40:33;2.65;;;1.95;;
22248;SDS011;67538;52.180;5.646;2023-04-03T09:45:49;2.30;;;2.00;;
22248;SDS011;67538;52.180;5.646;2023-04-03T09:48:18;3.08;;;2.00;;
22248;SDS011;67538;52.180;5.646;2023-04-03T09:50:54;3.00;;;2.10;;
22248;SDS011;67538;52.180;5.646;2023-04-03T09:53:28;3.13;;;1.80;;
22248;SDS011;67538;52.180;5.646;2023-04-03T09:56:00;3.20;;;2.15;;
22248;SDS011;67538;52.180;5.646;2023-04-03T09:58:30;4.38;;;2.35;;
22248;SDS011;67538;52.180;5.646;2023-04-03T10:01:01;5.00;;;2.13;;
22248;SDS011;67538;52.180;5.646;2023-04-03T10:03:30;3.42;;;2.08;;
22248;SDS011;67538;52.180;5.646;2023-04-03T10:05:59;3.53;;;2.40;;
22248;SDS011;67538;52.180;5.646;2023-04-03T10:08:28;3.25;;;2.55;;
22248;SDS011;67538;52.180;5.646;2023-04-03T10:13:52;3.80;;;2.70;;
22248;SDS011;67538;52.180;5.646;2023-04-03T10:16:25;2.10;;;1.50;;
22248;SDS011;67538;52.180;5.646;2023-04-03T10:21:59;4.50;;;2.92;;
22248;SDS011;67538;52.180;5.646;2023-04-03T10:24:34;8.43;;;4.35;;
22248;SDS011;67538;52.180;5.646;2023-04-03T10:27:07;5.60;;;3.00;;
22248;SDS011;67538;52.180;5.646;2023-04-03T10:29:39;3.08;;;2.38;;
22248;SDS011;67538;52.180;5.646;2023-04-03T10:32:26;7.00;;;4.65;;
22248;SDS011;67538;52.180;5.646;2023-04-03T10:35:08;4.93;;;3.10;;
22248;SDS011;67538;52.180;5.646;2023-04-03T10:37:46;5.05;;;3.22;;
22248;SDS011;67538;52.180;5.646;2023-04-03T10:40:25;4.40;;;2.50;;
22248;SDS011;67538;52.180;5.646;2023-04-03T10:42:59;3.90;;;2.80;;
22248;SDS011;67538;52.180;5.646;2023-04-03T10:45:35;3.93;;;2.40;;
22248;SDS011;67538;52.180;5.646;2023-04-03T10:48:15;2.72;;;2.25;;
22248;SDS011;67538;52.180;5.646;2023-04-03T10:50:50;3.20;;;2.28;;
22248;SDS011;67538;52.180;5.646;2023-04-03T10:53:24;3.87;;;2.10;;
22248;SDS011;67538;52.180;5.646;2023-04-03T10:56:01;3.78;;;1.90;;
22248;SDS011;67538;52.180;5.646;2023-04-03T10:58:39;4.47;;;2.20;;
22248;SDS011;67538;52.180;5.646;2023-04-03T11:01:10;3.55;;;2.00;;
22248;SDS011;67538;52.180;5.646;2023-04-03T11:03:42;2.33;;;1.95;;
22248;SDS011;67538;52.180;5.646;2023-04-03T11:06:14;4.20;;;2.30;;
22248;SDS011;67538;52.180;5.646;2023-04-03T11:08:44;5.38;;;2.10;;
22248;SDS011;67538;52.180;5.646;2023-04-03T11:11:16;4.93;;;2.30;;
22248;SDS011;67538;52.180;5.646;2023-04-03T11:13:48;3.42;;;2.30;;
22248;SDS011;67538;52.180;5.646;2023-04-03T11:16:21;4.07;;;2.10;;
22248;SDS011;67538;52.180;5.646;2023-04-03T11:18:54;4.95;;;2.00;;
22248;SDS011;67538;52.180;5.646;2023-04-03T11:21:27;2.78;;;1.92;;
22248;SDS011;67538;52.180;5.646;2023-04-03T11:23:59;5.45;;;2.83;;
22248;SDS011;67538;52.180;5.646;2023-04-03T11:26:31;5.15;;;2.30;;
22248;SDS011;67538;52.180;5.646;2023-04-03T11:29:05;3.00;;;1.80;;
22248;SDS011;67538;52.180;5.646;2023-04-03T11:31:41;6.07;;;2.40;;
22248;SDS011;67538;52.180;5.646;2023-04-03T11:34:23;3.90;;;2.20;;
22248;SDS011;67538;52.180;5.646;2023-04-03T11:36:59;4.28;;;2.10;;
22248;SDS011;67538;52.180;5.646;2023-04-03T11:39:28;7.25;;;2.22;;
22248;SDS011;67538;52.180;5.646;2023-04-03T11:42:12;4.13;;;2.20;;
22248;SDS011;67538;52.180;5.646;2023-04-03T11:44:41;5.32;;;1.98;;
22248;SDS011;67538;52.180;5.646;2023-04-03T11:47:09;2.78;;;1.73;;
22248;SDS011;67538;52.180;5.646;2023-04-03T11:49:51;3.05;;;1.95;;
22248;SDS011;67538;52.180;5.646;2023-04-03T11:55:46;5.67;;;2.80;;
22248;SDS011;67538;52.180;5.646;2023-04-03T11:58:20;8.32;;;4.10;;
22248;SDS011;67538;52.180;5.646;2023-04-03T12:00:54;13.43;;;6.05;;
22248;SDS011;67538;52.180;5.646;2023-04-03T12:12:56;9.63;;;6.10;;
22248;SDS011;67538;52.180;5.646;2023-04-03T12:18:31;6.07;;;3.60;;
22248;SDS011;67538;52.180;5.646;2023-04-03T12:21:16;7.93;;;3.58;;
22248;SDS011;67538;52.180;5.646;2023-04-03T12:23:59;7.53;;;3.97;;
22248;SDS011;67538;52.180;5.646;2023-04-03T12:26:30;5.93;;;2.50;;
22248;SDS011;67538;52.180;5.646;2023-04-03T12:29:02;5.20;;;2.72;;
22248;SDS011;67538;52.180;5.646;2023-04-03T12:31:42;7.68;;;4.15;;
22248;SDS011;67538;52.180;5.646;2023-04-03T12:34:24;11.07;;;6.77;;
22248;SDS011;67538;52.180;5.646;2023-04-03T12:37:07;6.38;;;3.80;;
22248;SDS011;67538;52.180;5.646;2023-04-03T12:39:45;4.22;;;2.40;;
22248;SDS011;67538;52.180;5.646;2023-04-03T12:42:30;7.05;;;3.90;;
22248;SDS011;67538;52.180;5.646;2023-04-03T12:45:10;5.65;;;2.63;;
22248;SDS011;67538;52.180;5.646;2023-04-03T12:47:45;5.63;;;3.58;;
22248;SDS011;67538;52.180;5.646;2023-04-03T12:50:17;4.50;;;2.95;;
22248;SDS011;67538;52.180;5.646;2023-04-03T12:52:50;10.82;;;5.10;;
22248;SDS011;67538;52.180;5.646;2023-04-03T12:55:27;8.57;;;4.60;;
22248;SDS011;67538;52.180;5.646;2023-04-03T12:57:54;8.93;;;2.40;;
22248;SDS011;67538;52.180;5.646;2023-04-03T13:00:25;6.30;;;2.65;;
22248;SDS011;67538;52.180;5.646;2023-04-03T13:02:58;8.40;;;3.00;;
22248;SDS011;67538;52.180;5.646;2023-04-03T13:05:26;6.57;;;3.03;;
22248;SDS011;67538;52.180;5.646;2023-04-03T13:07:56;5.15;;;2.83;;
22248;SDS011;67538;52.180;5.646;2023-04-03T13:10:28;3.90;;;2.10;;
22248;SDS011;67538;52.180;5.646;2023-04-03T13:12:57;7.53;;;2.47;;
22248;SDS011;67538;52.180;5.646;2023-04-03T13:15:39;3.67;;;2.40;;
22248;SDS011;67538;52.180;5.646;2023-04-03T13:18:20;7.18;;;2.65;;
22248;SDS011;67538;52.180;5.646;2023-04-03T13:20:48;6.18;;;2.38;;
22248;SDS011;67538;52.180;5.646;2023-04-03T13:23:17;6.47;;;2.50;;
22248;SDS011;67538;52.180;5.646;2023-04-03T13:25:49;4.30;;;2.30;;
22248;SDS011;67538;52.180;5.646;2023-04-03T13:28:18;4.57;;;2.50;;
22248;SDS011;67538;52.180;5.646;2023-04-03T13:30:55;4.07;;;2.30;;
22248;SDS011;67538;52.180;5.646;2023-04-03T13:33:28;4.10;;;2.30;;
22248;SDS011;67538;52.180;5.646;2023-04-03T13:35:58;6.47;;;2.30;;
22248;SDS011;67538;52.180;5.646;2023-04-03T13:38:30;3.20;;;2.15;;
22248;SDS011;67538;52.180;5.646;2023-04-03T13:41:01;5.40;;;2.42;;
22248;SDS011;67538;52.180;5.646;2023-04-03T13:43:31;5.10;;;2.20;;
22248;SDS011;67538;52.180;5.646;2023-04-03T13:46:02;4.38;;;2.20;;
22248;SDS011;67538;52.180;5.646;2023-04-03T13:48:35;6.20;;;2.00;;
22248;SDS011;67538;52.180;5.646;2023-04-03T13:51:05;6.57;;;2.13;;
22248;SDS011;67538;52.180;5.646;2023-04-03T13:53:44;5.00;;;2.20;;
22248;SDS011;67538;52.180;5.646;2023-04-03T13:56:18;3.87;;;2.00;;
22248;SDS011;67538;52.180;5.646;2023-04-03T13:58:56;3.92;;;1.95;;
22248;SDS011;67538;52.180;5.646;2023-04-03T14:01:32;3.95;;;2.10;;
22248;SDS011;67538;52.180;5.646;2023-04-03T14:04:10;6.10;;;2.50;;
22248;SDS011;67538;52.180;5.646;2023-04-03T14:06:39;3.90;;;1.92;;
22248;SDS011;67538;52.180;5.646;2023-04-03T14:09:07;7.10;;;2.30;;
22248;SDS011;67538;52.180;5.646;2023-04-03T14:11:35;3.63;;;2.20;;
22248;SDS011;67538;52.180;5.646;2023-04-03T14:14:05;6.75;;;2.25;;
22248;SDS011;67538;52.180;5.646;2023-04-03T14:16:37;5.50;;;2.60;;
22248;SDS011;67538;52.180;5.646;2023-04-03T14:19:06;6.43;;;2.50;;
22248;SDS011;67538;52.180;5.646;2023-04-03T14:21:49;8.30;;;2.55;;
22248;SDS011;67538;52.180;5.646;2023-04-03T14:24:17;7.30;;;2.70;;
22248;SDS011;67538;52.180;5.646;2023-04-03T14:26:47;11.77;;;2.65;;
22248;SDS011;67538;52.180;5.646;2023-04-03T14:29:14;6.75;;;2.58;;
22248;SDS011;67538;52.180;5.646;2023-04-03T14:31:42;6.55;;;2.47;;
22248;SDS011;67538;52.180;5.646;2023-04-03T14:34:10;10.10;;;2.40;;
22248;SDS011;67538;52.180;5.646;2023-04-03T14:36:38;7.35;;;2.22;;
22248;SDS011;67538;52.180;5.646;2023-04-03T14:39:07;5.45;;;2.50;;
22248;SDS011;67538;52.180;5.646;2023-04-03T14:41:36;6.05;;;2.60;;
22248;SDS011;67538;52.180;5.646;2023-04-03T14:44:05;7.35;;;2.65;;
22248;SDS011;67538;52.180;5.646;2023-04-03T14:46:33;5.60;;;2.42;;
22248;SDS011;67538;52.180;5.646;2023-04-03T14:49:02;6.45;;;2.47;;
22248;SDS011;67538;52.180;5.646;2023-04-03T14:51:32;5.03;;;2.50;;
22248;SDS011;67538;52.180;5.646;2023-04-03T14:54:00;7.68;;;2.70;;
22248;SDS011;67538;52.180;5.646;2023-04-03T14:56:28;7.25;;;2.50;;
22248;SDS011;67538;52.180;5.646;2023-04-03T14:58:56;5.40;;;2.70;;
22248;SDS011;67538;52.180;5.646;2023-04-03T15:01:27;6.60;;;2.57;;
22248;SDS011;67538;52.180;5.646;2023-04-03T15:03:54;7.43;;;2.40;;
22248;SDS011;67538;52.180;5.646;2023-04-03T15:06:21;4.18;;;2.35;;
22248;SDS011;67538;52.180;5.646;2023-04-03T15:08:48;6.00;;;2.70;;
22248;SDS011;67538;52.180;5.646;2023-04-03T15:11:15;5.70;;;2.53;;
22248;SDS011;67538;52.180;5.646;2023-04-03T15:13:42;7.53;;;2.70;;
22248;SDS011;67538;52.180;5.646;2023-04-03T15:16:12;6.80;;;2.70;;
22248;SDS011;67538;52.180;5.646;2023-04-03T15:18:44;5.47;;;2.70;;
22248;SDS011;67538;52.180;5.646;2023-04-03T15:21:12;4.77;;;2.60;;
22248;SDS011;67538;52.180;5.646;2023-04-03T15:23:39;5.90;;;2.90;;
22248;SDS011;67538;52.180;5.646;2023-04-03T15:26:07;8.40;;;2.87;;
22248;SDS011;67538;52.180;5.646;2023-04-03T15:28:35;6.20;;;2.70;;